Crockett, Mississippi
Current Conditions -  °F | °C
As of 4:15 AM on Thursday 18 Dec 2014 (Local Time) from KUOX Reporting Station
Broken Clouds Broken Clouds  
Wind Chill: 36°   Ceiling: 6500
Heat Index: 36°   Visibility: 7mi
Dew Point: 34°   Wind: 3mph
Humidity: 93%   Direction: 130°SE
Pressure: 30.23"   Gusts: NA
Location:  34.6336°N, 89.8203°W
Report Text: KUOX 181015Z AUTO 13003KT 7SM FEW043 FEW049 BKN065 02/01 A3023 RMK AO2 PWINO PNO
Loading
Personal Weather Stations






























Interactive Weather Map New forecast layout! Learn more

10-Day Weather Forecast

Advertisements
Track Severe Weather on mobile